sensor_id;sensor_type;location;lat;lon;timestamp;temperature;humidity
4755;DHT22;2391;47.212;7.542;2023-03-11T00:00:37;6.70;98.50
4755;DHT22;2391;47.212;7.542;2023-03-11T00:03:04;6.60;98.60
4755;DHT22;2391;47.212;7.542;2023-03-11T00:05:33;6.60;98.80
4755;DHT22;2391;47.212;7.542;2023-03-11T00:08:00;6.50;99.00
4755;DHT22;2391;47.212;7.542;2023-03-11T00:10:33;6.50;99.00
4755;DHT22;2391;47.212;7.542;2023-03-11T00:12:57;6.60;99.20
4755;DHT22;2391;47.212;7.542;2023-03-11T00:15:24;6.60;99.20
4755;DHT22;2391;47.212;7.542;2023-03-11T00:17:51;6.80;99.20
4755;DHT22;2391;47.212;7.542;2023-03-11T00:20:26;7.00;99.00
4755;DHT22;2391;47.212;7.542;2023-03-11T00:22:53;7.20;98.90
4755;DHT22;2391;47.212;7.542;2023-03-11T00:25:20;7.30;98.80
4755;DHT22;2391;47.212;7.542;2023-03-11T00:27:46;7.50;98.60
4755;DHT22;2391;47.212;7.542;2023-03-11T00:30:13;7.60;98.50
4755;DHT22;2391;47.212;7.542;2023-03-11T00:32:40;7.80;98.50
4755;DHT22;2391;47.212;7.542;2023-03-11T00:35:06;7.90;98.20
4755;DHT22;2391;47.212;7.542;2023-03-11T00:37:32;8.00;98.10
4755;DHT22;2391;47.212;7.542;2023-03-11T00:39:59;8.00;97.80
4755;DHT22;2391;47.212;7.542;2023-03-11T00:42:24;8.10;97.50
4755;DHT22;2391;47.212;7.542;2023-03-11T00:44:50;8.20;97.10
4755;DHT22;2391;47.212;7.542;2023-03-11T00:47:16;8.10;96.70
4755;DHT22;2391;47.212;7.542;2023-03-11T00:49:42;8.00;96.80
4755;DHT22;2391;47.212;7.542;2023-03-11T00:52:07;7.90;96.30
4755;DHT22;2391;47.212;7.542;2023-03-11T00:54:33;7.80;96.40
4755;DHT22;2391;47.212;7.542;2023-03-11T00:56:59;7.70;96.60
4755;DHT22;2391;47.212;7.542;2023-03-11T00:59:25;7.70;96.70
4755;DHT22;2391;47.212;7.542;2023-03-11T01:01:51;7.80;96.80
4755;DHT22;2391;47.212;7.542;2023-03-11T01:04:16;7.70;96.20
4755;DHT22;2391;47.212;7.542;2023-03-11T01:06:42;7.60;96.30
4755;DHT22;2391;47.212;7.542;2023-03-11T01:09:08;7.60;96.40
4755;DHT22;2391;47.212;7.542;2023-03-11T01:11:33;7.50;96.60
4755;DHT22;2391;47.212;7.542;2023-03-11T01:13:59;7.40;96.70
4755;DHT22;2391;47.212;7.542;2023-03-11T01:16:25;7.40;96.80
4755;DHT22;2391;47.212;7.542;2023-03-11T01:18:51;7.40;96.80
4755;DHT22;2391;47.212;7.542;2023-03-11T01:21:16;7.50;96.80
4755;DHT22;2391;47.212;7.542;2023-03-11T01:23:43;7.50;96.60
4755;DHT22;2391;47.212;7.542;2023-03-11T01:26:09;7.50;96.60
4755;DHT22;2391;47.212;7.542;2023-03-11T01:28:34;7.50;96.80
4755;DHT22;2391;47.212;7.542;2023-03-11T01:31:00;7.50;96.70
4755;DHT22;2391;47.212;7.542;2023-03-11T01:33:26;7.50;96.50
4755;DHT22;2391;47.212;7.542;2023-03-11T01:35:51;7.50;96.60
4755;DHT22;2391;47.212;7.542;2023-03-11T01:38:17;7.50;96.70
4755;DHT22;2391;47.212;7.542;2023-03-11T01:40:49;7.40;96.60
4755;DHT22;2391;47.212;7.542;2023-03-11T01:46:32;7.30;97.00
4755;DHT22;2391;47.212;7.542;2023-03-11T01:49:00;7.30;97.00
4755;DHT22;2391;47.212;7.542;2023-03-11T01:51:38;7.30;97.10
4755;DHT22;2391;47.212;7.542;2023-03-11T01:54:08;7.30;97.10
4755;DHT22;2391;47.212;7.542;2023-03-11T01:56:35;7.40;97.30
4755;DHT22;2391;47.212;7.542;2023-03-11T01:59:01;7.40;97.20
4755;DHT22;2391;47.212;7.542;2023-03-11T02:01:28;7.50;97.20
4755;DHT22;2391;47.212;7.542;2023-03-11T02:03:54;7.50;97.20
4755;DHT22;2391;47.212;7.542;2023-03-11T02:06:22;7.50;97.10
4755;DHT22;2391;47.212;7.542;2023-03-11T02:08:49;7.50;97.20
4755;DHT22;2391;47.212;7.542;2023-03-11T02:11:21;7.60;97.20
4755;DHT22;2391;47.212;7.542;2023-03-11T02:13:50;7.70;97.20
4755;DHT22;2391;47.212;7.542;2023-03-11T02:16:17;7.80;97.20
4755;DHT22;2391;47.212;7.542;2023-03-11T02:18:43;7.90;97.10
4755;DHT22;2391;47.212;7.542;2023-03-11T02:21:28;8.00;97.20
4755;DHT22;2391;47.212;7.542;2023-03-11T02:24:16;8.00;97.20
4755;DHT22;2391;47.212;7.542;2023-03-11T02:27:05;8.10;97.30
4755;DHT22;2391;47.212;7.542;2023-03-11T02:29:32;8.20;97.30
4755;DHT22;2391;47.212;7.542;2023-03-11T02:32:02;8.20;97.20
4755;DHT22;2391;47.212;7.542;2023-03-11T02:34:30;8.20;97.30
4755;DHT22;2391;47.212;7.542;2023-03-11T02:36:57;8.20;97.20
4755;DHT22;2391;47.212;7.542;2023-03-11T02:39:35;8.30;97.00
4755;DHT22;2391;47.212;7.542;2023-03-11T02:42:00;8.30;97.00
4755;DHT22;2391;47.212;7.542;2023-03-11T02:44:27;8.40;96.90
4755;DHT22;2391;47.212;7.542;2023-03-11T02:46:54;8.40;96.90
4755;DHT22;2391;47.212;7.542;2023-03-11T02:49:20;8.40;96.90
4755;DHT22;2391;47.212;7.542;2023-03-11T02:51:47;8.50;96.80
4755;DHT22;2391;47.212;7.542;2023-03-11T02:54:13;8.50;97.00
4755;DHT22;2391;47.212;7.542;2023-03-11T02:56:38;8.40;96.70
4755;DHT22;2391;47.212;7.542;2023-03-11T02:59:04;8.50;96.90
4755;DHT22;2391;47.212;7.542;2023-03-11T03:01:30;8.50;96.90
4755;DHT22;2391;47.212;7.542;2023-03-11T03:03:56;8.50;96.90
4755;DHT22;2391;47.212;7.542;2023-03-11T03:06:22;8.50;96.90
4755;DHT22;2391;47.212;7.542;2023-03-11T03:08:48;8.50;96.70
4755;DHT22;2391;47.212;7.542;2023-03-11T03:11:13;8.50;96.60
4755;DHT22;2391;47.212;7.542;2023-03-11T03:13:39;8.50;96.70
4755;DHT22;2391;47.212;7.542;2023-03-11T03:16:05;8.50;96.80
4755;DHT22;2391;47.212;7.542;2023-03-11T03:18:31;8.50;96.70
4755;DHT22;2391;47.212;7.542;2023-03-11T03:20:56;8.50;96.70
4755;DHT22;2391;47.212;7.542;2023-03-11T03:23:22;8.50;96.70
4755;DHT22;2391;47.212;7.542;2023-03-11T03:25:48;8.50;96.70
4755;DHT22;2391;47.212;7.542;2023-03-11T03:28:14;8.50;96.80
4755;DHT22;2391;47.212;7.542;2023-03-11T03:30:40;8.50;96.80
4755;DHT22;2391;47.212;7.542;2023-03-11T03:33:06;8.40;96.90
4755;DHT22;2391;47.212;7.542;2023-03-11T03:35:33;8.40;97.00
4755;DHT22;2391;47.212;7.542;2023-03-11T03:38:00;8.40;96.90
4755;DHT22;2391;47.212;7.542;2023-03-11T03:40:26;8.50;96.90
4755;DHT22;2391;47.212;7.542;2023-03-11T03:42:52;8.50;97.00
4755;DHT22;2391;47.212;7.542;2023-03-11T03:45:18;8.50;97.10
4755;DHT22;2391;47.212;7.542;2023-03-11T03:47:43;8.50;97.20
4755;DHT22;2391;47.212;7.542;2023-03-11T03:50:10;8.50;97.20
4755;DHT22;2391;47.212;7.542;2023-03-11T03:52:37;8.40;97.20
4755;DHT22;2391;47.212;7.542;2023-03-11T03:55:04;8.20;97.30
4755;DHT22;2391;47.212;7.542;2023-03-11T03:57:31;8.10;97.30
4755;DHT22;2391;47.212;7.542;2023-03-11T03:59:57;7.90;97.40
4755;DHT22;2391;47.212;7.542;2023-03-11T04:02:22;7.80;97.60
4755;DHT22;2391;47.212;7.542;2023-03-11T04:04:48;7.90;97.70
4755;DHT22;2391;47.212;7.542;2023-03-11T04:07:14;8.00;97.70
4755;DHT22;2391;47.212;7.542;2023-03-11T04:09:42;8.00;97.60
4755;DHT22;2391;47.212;7.542;2023-03-11T04:12:15;8.10;97.60
4755;DHT22;2391;47.212;7.542;2023-03-11T04:14:42;8.10;97.60
4755;DHT22;2391;47.212;7.542;2023-03-11T04:17:13;8.20;97.40
4755;DHT22;2391;47.212;7.542;2023-03-11T04:19:39;8.20;97.30
4755;DHT22;2391;47.212;7.542;2023-03-11T04:22:05;8.20;97.20
4755;DHT22;2391;47.212;7.542;2023-03-11T04:24:30;8.20;97.30
4755;DHT22;2391;47.212;7.542;2023-03-11T04:26:56;8.20;97.10
4755;DHT22;2391;47.212;7.542;2023-03-11T04:29:22;8.30;97.20
4755;DHT22;2391;47.212;7.542;2023-03-11T04:31:48;8.30;97.10
4755;DHT22;2391;47.212;7.542;2023-03-11T04:34:13;8.30;97.10
4755;DHT22;2391;47.212;7.542;2023-03-11T04:36:39;8.30;97.10
4755;DHT22;2391;47.212;7.542;2023-03-11T04:39:05;8.30;97.00
4755;DHT22;2391;47.212;7.542;2023-03-11T04:41:30;8.30;96.80
4755;DHT22;2391;47.212;7.542;2023-03-11T04:43:58;8.10;96.90
4755;DHT22;2391;47.212;7.542;2023-03-11T04:46:24;8.00;97.40
4755;DHT22;2391;47.212;7.542;2023-03-11T04:48:49;7.80;96.90
4755;DHT22;2391;47.212;7.542;2023-03-11T04:51:15;7.40;97.20
4755;DHT22;2391;47.212;7.542;2023-03-11T04:53:41;7.20;97.70
4755;DHT22;2391;47.212;7.542;2023-03-11T04:56:06;6.90;98.00
4755;DHT22;2391;47.212;7.542;2023-03-11T04:58:32;6.70;98.20
4755;DHT22;2391;47.212;7.542;2023-03-11T05:00:58;6.40;98.70
4755;DHT22;2391;47.212;7.542;2023-03-11T05:03:24;6.10;99.10
4755;DHT22;2391;47.212;7.542;2023-03-11T05:05:50;6.00;99.60
4755;DHT22;2391;47.212;7.542;2023-03-11T05:08:17;6.00;99.70
4755;DHT22;2391;47.212;7.542;2023-03-11T05:10:43;5.90;99.80
4755;DHT22;2391;47.212;7.542;2023-03-11T05:13:09;5.90;99.90
4755;DHT22;2391;47.212;7.542;2023-03-11T05:15:39;5.80;99.90
4755;DHT22;2391;47.212;7.542;2023-03-11T05:18:13;5.80;99.90
4755;DHT22;2391;47.212;7.542;2023-03-11T05:21:01;5.90;99.90
4755;DHT22;2391;47.212;7.542;2023-03-11T05:23:34;5.80;99.90
4755;DHT22;2391;47.212;7.542;2023-03-11T05:26:05;5.90;99.90
4755;DHT22;2391;47.212;7.542;2023-03-11T05:28:43;6.00;99.90
4755;DHT22;2391;47.212;7.542;2023-03-11T05:31:15;6.10;99.80
4755;DHT22;2391;47.212;7.542;2023-03-11T05:33:48;6.10;99.50
4755;DHT22;2391;47.212;7.542;2023-03-11T05:36:30;5.90;99.50
4755;DHT22;2391;47.212;7.542;2023-03-11T05:39:02;5.90;99.80
4755;DHT22;2391;47.212;7.542;2023-03-11T05:41:45;6.00;99.90
4755;DHT22;2391;47.212;7.542;2023-03-11T05:44:17;6.00;99.70
4755;DHT22;2391;47.212;7.542;2023-03-11T05:46:51;6.00;99.60
4755;DHT22;2391;47.212;7.542;2023-03-11T05:49:28;6.00;99.60
4755;DHT22;2391;47.212;7.542;2023-03-11T05:52:02;6.00;99.40
4755;DHT22;2391;47.212;7.542;2023-03-11T05:54:43;6.00;99.20
4755;DHT22;2391;47.212;7.542;2023-03-11T05:57:27;5.90;99.20
4755;DHT22;2391;47.212;7.542;2023-03-11T06:00:08;5.80;99.20
4755;DHT22;2391;47.212;7.542;2023-03-11T06:02:46;5.60;99.40
4755;DHT22;2391;47.212;7.542;2023-03-11T06:05:25;5.80;99.60
4755;DHT22;2391;47.212;7.542;2023-03-11T06:08:06;6.00;99.40
4755;DHT22;2391;47.212;7.542;2023-03-11T06:10:46;6.00;98.70
4755;DHT22;2391;47.212;7.542;2023-03-11T06:13:40;5.90;98.80
4755;DHT22;2391;47.212;7.542;2023-03-11T06:16:14;5.90;98.70
4755;DHT22;2391;47.212;7.542;2023-03-11T06:18:53;5.90;98.40
4755;DHT22;2391;47.212;7.542;2023-03-11T06:21:27;5.90;98.30
4755;DHT22;2391;47.212;7.542;2023-03-11T06:24:05;5.90;98.30
4755;DHT22;2391;47.212;7.542;2023-03-11T06:26:42;6.00;97.90
4755;DHT22;2391;47.212;7.542;2023-03-11T06:29:19;6.20;97.70
4755;DHT22;2391;47.212;7.542;2023-03-11T06:32:01;6.30;97.80
4755;DHT22;2391;47.212;7.542;2023-03-11T06:34:32;6.20;97.50
4755;DHT22;2391;47.212;7.542;2023-03-11T06:37:07;6.10;97.50
4755;DHT22;2391;47.212;7.542;2023-03-11T06:39:36;6.10;97.50
4755;DHT22;2391;47.212;7.542;2023-03-11T06:42:10;6.20;97.50
4755;DHT22;2391;47.212;7.542;2023-03-11T06:44:47;6.20;97.40
4755;DHT22;2391;47.212;7.542;2023-03-11T06:47:23;6.10;97.50
4755;DHT22;2391;47.212;7.542;2023-03-11T06:49:54;5.90;97.70
4755;DHT22;2391;47.212;7.542;2023-03-11T06:52:28;5.90;97.80
4755;DHT22;2391;47.212;7.542;2023-03-11T06:55:07;5.80;97.90
4755;DHT22;2391;47.212;7.542;2023-03-11T06:57:48;5.90;97.90
4755;DHT22;2391;47.212;7.542;2023-03-11T07:00:38;6.00;97.80
4755;DHT22;2391;47.212;7.542;2023-03-11T07:03:35;6.10;97.70
4755;DHT22;2391;47.212;7.542;2023-03-11T07:06:14;6.00;97.70
4755;DHT22;2391;47.212;7.542;2023-03-11T07:08:54;6.00;97.90
4755;DHT22;2391;47.212;7.542;2023-03-11T07:11:33;5.90;97.70
4755;DHT22;2391;47.212;7.542;2023-03-11T07:14:05;5.80;98.00
4755;DHT22;2391;47.212;7.542;2023-03-11T07:16:40;5.60;98.20
4755;DHT22;2391;47.212;7.542;2023-03-11T07:19:22;5.60;98.30
4755;DHT22;2391;47.212;7.542;2023-03-11T07:21:57;5.70;98.50
4755;DHT22;2391;47.212;7.542;2023-03-11T07:24:29;5.60;98.40
4755;DHT22;2391;47.212;7.542;2023-03-11T07:27:11;5.60;98.50
4755;DHT22;2391;47.212;7.542;2023-03-11T07:30:10;5.50;98.60
4755;DHT22;2391;47.212;7.542;2023-03-11T07:32:45;5.50;98.70
4755;DHT22;2391;47.212;7.542;2023-03-11T07:35:22;5.50;98.60
4755;DHT22;2391;47.212;7.542;2023-03-11T07:38:21;5.40;98.50
4755;DHT22;2391;47.212;7.542;2023-03-11T07:40:59;5.40;98.90
4755;DHT22;2391;47.212;7.542;2023-03-11T07:43:52;5.40;98.70
4755;DHT22;2391;47.212;7.542;2023-03-11T07:46:32;5.30;98.50
4755;DHT22;2391;47.212;7.542;2023-03-11T07:49:15;5.30;98.60
4755;DHT22;2391;47.212;7.542;2023-03-11T07:51:49;5.40;98.80
4755;DHT22;2391;47.212;7.542;2023-03-11T07:54:26;5.50;98.60
4755;DHT22;2391;47.212;7.542;2023-03-11T07:57:02;5.70;98.30
4755;DHT22;2391;47.212;7.542;2023-03-11T07:59:47;5.90;98.00
4755;DHT22;2391;47.212;7.542;2023-03-11T08:02:20;5.90;97.80
4755;DHT22;2391;47.212;7.542;2023-03-11T08:05:10;5.90;97.80
4755;DHT22;2391;47.212;7.542;2023-03-11T08:07:40;5.80;97.80
4755;DHT22;2391;47.212;7.542;2023-03-11T08:10:23;5.60;97.90
4755;DHT22;2391;47.212;7.542;2023-03-11T08:13:08;5.60;98.00
4755;DHT22;2391;47.212;7.542;2023-03-11T08:15:48;5.70;97.90
4755;DHT22;2391;47.212;7.542;2023-03-11T08:18:34;5.60;97.80
4755;DHT22;2391;47.212;7.542;2023-03-11T08:21:27;5.50;97.90
4755;DHT22;2391;47.212;7.542;2023-03-11T08:24:08;5.50;98.20
4755;DHT22;2391;47.212;7.542;2023-03-11T08:26:49;5.50;98.00
4755;DHT22;2391;47.212;7.542;2023-03-11T08:29:23;5.50;98.10
4755;DHT22;2391;47.212;7.542;2023-03-11T08:31:57;5.50;98.20
4755;DHT22;2391;47.212;7.542;2023-03-11T08:34:27;5.50;98.00
4755;DHT22;2391;47.212;7.542;2023-03-11T08:37:03;5.40;98.10
4755;DHT22;2391;47.212;7.542;2023-03-11T08:39:41;5.50;98.00
4755;DHT22;2391;47.212;7.542;2023-03-11T08:42:17;5.50;97.90
4755;DHT22;2391;47.212;7.542;2023-03-11T08:44:55;5.30;98.10
4755;DHT22;2391;47.212;7.542;2023-03-11T08:47:27;5.30;98.40
4755;DHT22;2391;47.212;7.542;2023-03-11T08:50:01;5.10;98.30
4755;DHT22;2391;47.212;7.542;2023-03-11T08:52:36;5.10;98.40
4755;DHT22;2391;47.212;7.542;2023-03-11T08:55:07;5.20;98.40
4755;DHT22;2391;47.212;7.542;2023-03-11T08:58:08;5.30;98.50
4755;DHT22;2391;47.212;7.542;2023-03-11T09:00:40;5.40;98.50
4755;DHT22;2391;47.212;7.542;2023-03-11T09:03:14;5.30;98.20
4755;DHT22;2391;47.212;7.542;2023-03-11T09:05:59;5.30;98.30
4755;DHT22;2391;47.212;7.542;2023-03-11T09:08:35;5.20;98.40
4755;DHT22;2391;47.212;7.542;2023-03-11T09:11:16;5.20;98.70
4755;DHT22;2391;47.212;7.542;2023-03-11T09:13:50;5.30;98.70
4755;DHT22;2391;47.212;7.542;2023-03-11T09:16:22;5.40;98.80
4755;DHT22;2391;47.212;7.542;2023-03-11T09:18:56;5.50;98.70
4755;DHT22;2391;47.212;7.542;2023-03-11T09:21:32;5.50;98.60
4755;DHT22;2391;47.212;7.542;2023-03-11T09:24:07;5.60;98.60
4755;DHT22;2391;47.212;7.542;2023-03-11T09:26:40;5.60;98.50
4755;DHT22;2391;47.212;7.542;2023-03-11T09:29:15;5.60;98.50
4755;DHT22;2391;47.212;7.542;2023-03-11T09:31:53;5.70;98.60
4755;DHT22;2391;47.212;7.542;2023-03-11T09:34:47;5.70;98.50
4755;DHT22;2391;47.212;7.542;2023-03-11T09:37:28;5.80;98.60
4755;DHT22;2391;47.212;7.542;2023-03-11T09:40:15;5.80;98.50
4755;DHT22;2391;47.212;7.542;2023-03-11T09:45:54;5.90;98.70
4755;DHT22;2391;47.212;7.542;2023-03-11T09:51:19;6.10;98.50
4755;DHT22;2391;47.212;7.542;2023-03-11T09:53:58;6.20;98.50
4755;DHT22;2391;47.212;7.542;2023-03-11T09:56:29;6.20;98.30
4755;DHT22;2391;47.212;7.542;2023-03-11T10:02:22;6.30;98.30
4755;DHT22;2391;47.212;7.542;2023-03-11T10:05:13;6.40;98.10
4755;DHT22;2391;47.212;7.542;2023-03-11T10:08:04;6.30;98.10
4755;DHT22;2391;47.212;7.542;2023-03-11T10:10:42;6.20;98.40
4755;DHT22;2391;47.212;7.542;2023-03-11T10:16:19;6.30;98.50
4755;DHT22;2391;47.212;7.542;2023-03-11T10:18:55;6.30;98.50
4755;DHT22;2391;47.212;7.542;2023-03-11T10:21:47;6.10;98.60
4755;DHT22;2391;47.212;7.542;2023-03-11T10:27:25;5.90;98.90
4755;DHT22;2391;47.212;7.542;2023-03-11T10:33:01;6.00;99.00
4755;DHT22;2391;47.212;7.542;2023-03-11T10:35:53;6.00;99.10
4755;DHT22;2391;47.212;7.542;2023-03-11T10:38:47;6.20;99.30
4755;DHT22;2391;47.212;7.542;2023-03-11T10:41:46;6.20;98.90
4755;DHT22;2391;47.212;7.542;2023-03-11T10:43:44;6.30;98.90
4755;DHT22;2391;47.212;7.542;2023-03-11T10:46:18;6.20;98.70
4755;DHT22;2391;47.212;7.542;2023-03-11T10:48:54;6.10;98.80
4755;DHT22;2391;47.212;7.542;2023-03-11T10:51:32;6.10;99.30
4755;DHT22;2391;47.212;7.542;2023-03-11T10:57:02;6.20;99.10
4755;DHT22;2391;47.212;7.542;2023-03-11T10:59:50;6.30;99.20
4755;DHT22;2391;47.212;7.542;2023-03-11T11:02:48;6.20;99.30
4755;DHT22;2391;47.212;7.542;2023-03-11T11:05:34;6.10;99.50
4755;DHT22;2391;47.212;7.542;2023-03-11T11:08:20;6.10;99.50
4755;DHT22;2391;47.212;7.542;2023-03-11T11:11:10;6.10;99.90
4755;DHT22;2391;47.212;7.542;2023-03-11T11:13:42;6.20;99.90
4755;DHT22;2391;47.212;7.542;2023-03-11T11:16:24;6.30;99.40
4755;DHT22;2391;47.212;7.542;2023-03-11T11:21:46;6.50;99.20
4755;DHT22;2391;47.212;7.542;2023-03-11T11:24:28;6.60;99.20
4755;DHT22;2391;47.212;7.542;2023-03-11T11:27:24;6.60;99.00
4755;DHT22;2391;47.212;7.542;2023-03-11T11:32:52;6.80;98.50
4755;DHT22;2391;47.212;7.542;2023-03-11T11:35:24;6.90;98.60
4755;DHT22;2391;47.212;7.542;2023-03-11T11:38:10;6.90;98.70
4755;DHT22;2391;47.212;7.542;2023-03-11T11:41:09;6.90;98.60
4755;DHT22;2391;47.212;7.542;2023-03-11T11:46:54;6.90;98.40
4755;DHT22;2391;47.212;7.542;2023-03-11T11:49:30;6.70;98.50
4755;DHT22;2391;47.212;7.542;2023-03-11T11:52:20;6.70;98.60
4755;DHT22;2391;47.212;7.542;2023-03-11T11:54:53;6.70;98.30
4755;DHT22;2391;47.212;7.542;2023-03-11T11:57:48;7.00;98.20
4755;DHT22;2391;47.212;7.542;2023-03-11T12:03:58;7.00;97.50
4755;DHT22;2391;47.212;7.542;2023-03-11T12:06:11;6.90;98.10
4755;DHT22;2391;47.212;7.542;2023-03-11T12:10:31;6.90;98.00
4755;DHT22;2391;47.212;7.542;2023-03-11T12:11:47;6.90;97.80
4755;DHT22;2391;47.212;7.542;2023-03-11T12:14:18;6.90;98.00
4755;DHT22;2391;47.212;7.542;2023-03-11T12:17:01;7.00;97.70
4755;DHT22;2391;47.212;7.542;2023-03-11T12:19:56;7.10;97.70
4755;DHT22;2391;47.212;7.542;2023-03-11T12:23:00;7.10;98.00
4755;DHT22;2391;47.212;7.542;2023-03-11T12:29:27;7.10;97.60
4755;DHT22;2391;47.212;7.542;2023-03-11T12:31:12;7.00;97.70
4755;DHT22;2391;47.212;7.542;2023-03-11T12:33:46;7.10;97.80
4755;DHT22;2391;47.212;7.542;2023-03-11T12:38:56;7.10;97.80
4755;DHT22;2391;47.212;7.542;2023-03-11T12:41:42;7.00;97.90
4755;DHT22;2391;47.212;7.542;2023-03-11T12:44:26;7.00;97.60
4755;DHT22;2391;47.212;7.542;2023-03-11T12:49:48;7.10;97.60
4755;DHT22;2391;47.212;7.542;2023-03-11T12:52:23;7.20;97.50
4755;DHT22;2391;47.212;7.542;2023-03-11T13:05:53;7.20;97.40
4755;DHT22;2391;47.212;7.542;2023-03-11T13:08:32;7.10;97.20
4755;DHT22;2391;47.212;7.542;2023-03-11T13:10:59;7.20;97.40
4755;DHT22;2391;47.212;7.542;2023-03-11T13:13:37;7.30;97.00
4755;DHT22;2391;47.212;7.542;2023-03-11T13:18:48;7.30;96.40
4755;DHT22;2391;47.212;7.542;2023-03-11T13:21:37;7.30;96.50
4755;DHT22;2391;47.212;7.542;2023-03-11T13:32:53;7.40;96.70
4755;DHT22;2391;47.212;7.542;2023-03-11T13:35:49;7.40;96.70
4755;DHT22;2391;47.212;7.542;2023-03-11T13:38:42;7.30;96.90
4755;DHT22;2391;47.212;7.542;2023-03-11T13:41:13;7.30;96.90
4755;DHT22;2391;47.212;7.542;2023-03-11T13:43:42;7.40;96.90
4755;DHT22;2391;47.212;7.542;2023-03-11T13:46:25;7.50;97.00
4755;DHT22;2391;47.212;7.542;2023-03-11T13:48:53;7.40;96.40
4755;DHT22;2391;47.212;7.542;2023-03-11T13:51:36;7.40;97.00
4755;DHT22;2391;47.212;7.542;2023-03-11T13:56:54;7.40;97.10
4755;DHT22;2391;47.212;7.542;2023-03-11T14:01:56;7.30;97.30
4755;DHT22;2391;47.212;7.542;2023-03-11T14:04:31;7.10;97.00
4755;DHT22;2391;47.212;7.542;2023-03-11T14:06:59;6.90;97.20
4755;DHT22;2391;47.212;7.542;2023-03-11T14:09:27;6.80;97.10
4755;DHT22;2391;47.212;7.542;2023-03-11T14:11:57;6.80;97.40
4755;DHT22;2391;47.212;7.542;2023-03-11T14:14:29;7.00;97.40
4755;DHT22;2391;47.212;7.542;2023-03-11T14:16:55;7.10;97.30
4755;DHT22;2391;47.212;7.542;2023-03-11T14:19:21;7.20;97.20
4755;DHT22;2391;47.212;7.542;2023-03-11T14:21:49;7.30;97.00
4755;DHT22;2391;47.212;7.542;2023-03-11T14:24:18;7.20;96.80
4755;DHT22;2391;47.212;7.542;2023-03-11T14:26:45;7.20;97.00
4755;DHT22;2391;47.212;7.542;2023-03-11T14:29:15;7.20;97.20
4755;DHT22;2391;47.212;7.542;2023-03-11T14:31:42;7.30;96.90
4755;DHT22;2391;47.212;7.542;2023-03-11T14:34:20;7.40;97.00
4755;DHT22;2391;47.212;7.542;2023-03-11T14:36:49;7.40;97.10
4755;DHT22;2391;47.212;7.542;2023-03-11T14:42:39;7.30;97.30
4755;DHT22;2391;47.212;7.542;2023-03-11T14:44:23;7.30;97.40
4755;DHT22;2391;47.212;7.542;2023-03-11T14:46:51;7.40;97.30
4755;DHT22;2391;47.212;7.542;2023-03-11T14:49:20;7.40;97.40
4755;DHT22;2391;47.212;7.542;2023-03-11T14:51:52;7.40;97.30
4755;DHT22;2391;47.212;7.542;2023-03-11T14:54:20;7.40;97.20
4755;DHT22;2391;47.212;7.542;2023-03-11T14:56:52;7.50;97.20
4755;DHT22;2391;47.212;7.542;2023-03-11T14:59:27;7.60;97.10
4755;DHT22;2391;47.212;7.542;2023-03-11T15:01:55;7.60;96.80
4755;DHT22;2391;47.212;7.542;2023-03-11T15:04:33;7.70;96.70
4755;DHT22;2391;47.212;7.542;2023-03-11T15:07:03;7.70;96.60
4755;DHT22;2391;47.212;7.542;2023-03-11T15:09:30;7.70;96.80
4755;DHT22;2391;47.212;7.542;2023-03-11T15:11:58;7.70;96.70
4755;DHT22;2391;47.212;7.542;2023-03-11T15:14:29;7.60;96.90
4755;DHT22;2391;47.212;7.542;2023-03-11T15:17:17;7.60;97.20
4755;DHT22;2391;47.212;7.542;2023-03-11T15:19:43;7.70;97.30
4755;DHT22;2391;47.212;7.542;2023-03-11T15:22:30;7.80;97.10
4755;DHT22;2391;47.212;7.542;2023-03-11T15:24:59;7.90;97.00
4755;DHT22;2391;47.212;7.542;2023-03-11T15:27:31;7.90;96.90
4755;DHT22;2391;47.212;7.542;2023-03-11T15:29:59;7.80;96.80
4755;DHT22;2391;47.212;7.542;2023-03-11T15:32:46;7.90;96.70
4755;DHT22;2391;47.212;7.542;2023-03-11T15:35:27;7.80;96.70
4755;DHT22;2391;47.212;7.542;2023-03-11T15:38:20;7.90;96.60
4755;DHT22;2391;47.212;7.542;2023-03-11T15:41:03;8.10;96.50
4755;DHT22;2391;47.212;7.542;2023-03-11T15:43:46;8.30;96.40
4755;DHT22;2391;47.212;7.542;2023-03-11T15:46:18;8.40;96.40
4755;DHT22;2391;47.212;7.542;2023-03-11T15:48:51;8.60;96.30
4755;DHT22;2391;47.212;7.542;2023-03-11T15:51:21;8.70;96.20
4755;DHT22;2391;47.212;7.542;2023-03-11T15:53:51;8.80;95.90
4755;DHT22;2391;47.212;7.542;2023-03-11T15:56:21;8.90;95.70
4755;DHT22;2391;47.212;7.542;2023-03-11T15:58:52;9.00;95.70
4755;DHT22;2391;47.212;7.542;2023-03-11T16:01:24;9.10;95.30
4755;DHT22;2391;47.212;7.542;2023-03-11T16:03:54;9.10;95.20
4755;DHT22;2391;47.212;7.542;2023-03-11T16:06:25;9.10;95.20
4755;DHT22;2391;47.212;7.542;2023-03-11T16:08:51;9.20;95.20
4755;DHT22;2391;47.212;7.542;2023-03-11T16:11:22;9.30;95.10
4755;DHT22;2391;47.212;7.542;2023-03-11T16:13:50;9.30;95.10
4755;DHT22;2391;47.212;7.542;2023-03-11T16:16:18;9.20;95.10
4755;DHT22;2391;47.212;7.542;2023-03-11T16:18:45;9.20;95.20
4755;DHT22;2391;47.212;7.542;2023-03-11T16:21:17;9.20;95.30
4755;DHT22;2391;47.212;7.542;2023-03-11T16:23:46;9.20;95.30
4755;DHT22;2391;47.212;7.542;2023-03-11T16:26:15;9.20;95.40
4755;DHT22;2391;47.212;7.542;2023-03-11T16:28:45;9.20;95.20
4755;DHT22;2391;47.212;7.542;2023-03-11T16:31:11;9.20;95.30
4755;DHT22;2391;47.212;7.542;2023-03-11T16:33:39;9.10;95.30
4755;DHT22;2391;47.212;7.542;2023-03-11T16:36:09;9.10;95.30
4755;DHT22;2391;47.212;7.542;2023-03-11T16:38:51;9.10;95.40
4755;DHT22;2391;47.212;7.542;2023-03-11T16:41:21;9.10;95.40
4755;DHT22;2391;47.212;7.542;2023-03-11T16:43:48;9.10;95.40
4755;DHT22;2391;47.212;7.542;2023-03-11T16:46:19;9.10;95.60
4755;DHT22;2391;47.212;7.542;2023-03-11T16:48:51;9.00;95.50
4755;DHT22;2391;47.212;7.542;2023-03-11T16:51:20;9.00;95.50
4755;DHT22;2391;47.212;7.542;2023-03-11T16:53:57;9.00;95.50
4755;DHT22;2391;47.212;7.542;2023-03-11T16:56:21;8.90;95.60
4755;DHT22;2391;47.212;7.542;2023-03-11T16:58:49;8.80;95.60
4755;DHT22;2391;47.212;7.542;2023-03-11T17:01:19;8.70;95.80
4755;DHT22;2391;47.212;7.542;2023-03-11T17:03:49;8.70;95.90
4755;DHT22;2391;47.212;7.542;2023-03-11T17:06:20;8.70;96.00
4755;DHT22;2391;47.212;7.542;2023-03-11T17:08:53;8.60;95.90
4755;DHT22;2391;47.212;7.542;2023-03-11T17:11:21;8.60;96.00
4755;DHT22;2391;47.212;7.542;2023-03-11T17:13:57;8.60;95.90
4755;DHT22;2391;47.212;7.542;2023-03-11T17:16:37;8.60;96.00
4755;DHT22;2391;47.212;7.542;2023-03-11T17:19:09;8.60;96.00
4755;DHT22;2391;47.212;7.542;2023-03-11T17:21:42;8.50;96.10
4755;DHT22;2391;47.212;7.542;2023-03-11T17:24:25;8.50;96.10
4755;DHT22;2391;47.212;7.542;2023-03-11T17:26:55;8.50;96.20
4755;DHT22;2391;47.212;7.542;2023-03-11T17:29:24;8.50;96.20
4755;DHT22;2391;47.212;7.542;2023-03-11T17:31:50;8.50;96.20
4755;DHT22;2391;47.212;7.542;2023-03-11T17:34:18;8.60;96.50
4755;DHT22;2391;47.212;7.542;2023-03-11T17:36:46;8.60;96.20
4755;DHT22;2391;47.212;7.542;2023-03-11T17:39:14;8.70;96.10
4755;DHT22;2391;47.212;7.542;2023-03-11T17:41:42;8.90;96.00
4755;DHT22;2391;47.212;7.542;2023-03-11T17:44:09;9.00;95.90
4755;DHT22;2391;47.212;7.542;2023-03-11T17:46:37;9.10;95.80
4755;DHT22;2391;47.212;7.542;2023-03-11T17:49:13;9.20;95.60
4755;DHT22;2391;47.212;7.542;2023-03-11T17:51:44;9.30;95.40
4755;DHT22;2391;47.212;7.542;2023-03-11T17:54:16;9.40;95.40
4755;DHT22;2391;47.212;7.542;2023-03-11T17:56:44;9.40;95.30
4755;DHT22;2391;47.212;7.542;2023-03-11T17:59:14;9.50;95.20
4755;DHT22;2391;47.212;7.542;2023-03-11T18:01:45;9.50;95.10
4755;DHT22;2391;47.212;7.542;2023-03-11T18:04:14;9.50;95.20
4755;DHT22;2391;47.212;7.542;2023-03-11T18:06:48;9.60;95.20
4755;DHT22;2391;47.212;7.542;2023-03-11T18:09:19;9.50;95.00
4755;DHT22;2391;47.212;7.542;2023-03-11T18:11:54;9.60;95.10